Time;durP1;ratioP1;P1;durP2;ratioP2;P2;SDS_P1;SDS_P2;PMS_P1;PMS_P2;Temp;Humidity;BMP_temperature;BMP_pressure;BME280_temperature;BME280_humidity;BME280_pressure;Samples;Min_cycle;Max_cycle;Signal;HPM_P1;HPM_P2
2022/01/14 00:01:59;;;;;;;;;16.50;13.00;;;;;20.27;31.89;103220.56;4993456;28;47039;-51
2022/01/14 00:04:25;;;;;;;;;16.50;14.00;;;;;20.31;32.05;103224.00;4993536;27;45294;-55
2022/01/14 00:06:51;;;;;;;;;15.50;14.25;;;;;20.32;31.67;103231.91;4993875;28;45285;-47
2022/01/14 00:09:17;;;;;;;;;14.50;14.25;;;;;20.36;31.74;103220.41;4993920;27;45548;-60
2022/01/14 00:11:50;;;;;;;;;13.25;11.75;;;;;20.37;32.11;103211.59;4993642;28;45504;-55
2022/01/14 00:16:44;;;;;;;;;14.50;13.50;;;;;20.44;31.57;103220.28;4993747;28;45330;-50
2022/01/14 00:19:10;;;;;;;;;16.00;13.00;;;;;20.46;31.85;103209.69;4994184;28;45498;-51
2022/01/14 00:21:38;;;;;;;;;13.50;13.50;;;;;20.50;31.75;103212.28;4993448;28;46178;-46
2022/01/14 00:24:08;;;;;;;;;11.00;9.25;;;;;20.52;31.54;103212.25;4993849;28;45848;-56
2022/01/14 00:32:15;;;;;;;;;15.50;15.00;;;;;20.59;31.31;103213.88;4993656;28;45786;-55
2022/01/14 00:34:41;;;;;;;;;15.25;14.75;;;;;20.59;31.46;103213.88;4993562;28;45311;-54
2022/01/14 00:37:06;;;;;;;;;15.25;12.00;;;;;20.61;31.39;103219.13;4993479;28;45421;-51
2022/01/14 00:39:32;;;;;;;;;15.75;13.50;;;;;20.62;31.81;103210.28;4993789;28;45333;-46
2022/01/14 00:41:57;;;;;;;;;18.25;17.25;;;;;20.60;31.29;103207.69;4993206;28;45379;-55
2022/01/14 00:44:23;;;;;;;;;14.50;13.50;;;;;20.61;31.75;103212.06;4993272;28;45422;-47
2022/01/14 00:46:49;;;;;;;;;15.50;14.25;;;;;20.62;31.21;103208.53;4993116;28;45491;-50
2022/01/14 00:49:16;;;;;;;;;12.00;10.25;;;;;20.61;31.64;103203.31;4993203;28;45276;-56
2022/01/14 00:51:43;;;;;;;;;16.25;13.00;;;;;20.62;31.78;103205.91;4992878;28;45406;-53
2022/01/14 00:54:09;;;;;;;;;14.75;14.50;;;;;20.62;31.13;103211.19;4992988;27;45363;-53
2022/01/14 00:59:16;;;;;;;;;14.75;14.75;;;;;20.62;31.56;103215.56;4993635;28;45379;-48
2022/01/14 01:01:51;;;;;;;;;13.75;13.50;;;;;20.62;31.89;103205.91;4976100;28;46564;-50
2022/01/14 01:04:22;;;;;;;;;15.25;15.25;;;;;20.62;31.62;103205.03;4993965;28;45924;-54
2022/01/14 01:06:48;;;;;;;;;13.25;13.25;;;;;20.60;31.27;103207.69;4996074;28;45304;-57
2022/01/14 01:09:15;;;;;;;;;16.00;12.50;;;;;20.60;31.21;103201.56;4978922;28;45692;-55
2022/01/14 01:11:52;;;;;;;;;16.50;16.00;;;;;20.60;31.20;103212.13;4995905;28;45520;-50
2022/01/14 01:14:24;;;;;;;;;14.25;13.00;;;;;20.58;31.24;103214.75;4978331;28;45252;-54
2022/01/14 01:16:49;;;;;;;;;10.50;9.50;;;;;20.55;31.60;103202.50;4996167;28;45411;-56
2022/01/14 01:19:15;;;;;;;;;15.00;13.25;;;;;20.58;31.57;103214.75;4996106;28;45249;-59
2022/01/14 01:21:41;;;;;;;;;14.00;13.50;;;;;20.55;31.27;103215.69;4995776;28;45336;-52
2022/01/14 01:24:09;;;;;;;;;15.00;13.50;;;;;20.55;31.54;103210.41;4996035;28;45297;-57
2022/01/14 01:26:38;;;;;;;;;15.50;15.00;;;;;20.53;31.15;103212.22;4996284;28;45388;-53
2022/01/14 01:29:31;;;;;;;;;13.25;13.00;;;;;20.53;31.69;103206.09;4996354;28;45383;-57
2022/01/14 01:31:54;;;;;;;;;17.75;13.25;;;;;20.51;31.61;103200.81;4995413;28;46349;-53
2022/01/14 01:34:23;;;;;;;;;14.00;13.75;;;;;20.51;31.16;103206.09;4995740;27;45358;-55
2022/01/14 01:36:51;;;;;;;;;16.00;14.25;;;;;20.49;31.54;103197.38;4995794;27;45403;-54
2022/01/14 01:39:21;;;;;;;;;14.25;12.25;;;;;20.50;31.16;103203.50;4995863;28;45637;-57
2022/01/14 01:41:49;;;;;;;;;13.50;13.50;;;;;20.49;31.75;103199.13;4995496;28;46578;-58
2022/01/14 01:44:17;;;;;;;;;14.75;13.25;;;;;20.46;31.56;103193.91;4995475;27;45854;-49
2022/01/14 01:46:46;;;;;;;;;15.50;11.75;;;;;20.46;31.46;103204.44;4995680;27;45250;-51
2022/01/14 01:49:13;;;;;;;;;15.75;15.00;;;;;20.44;31.83;103207.09;4995836;27;45345;-50
2022/01/14 01:51:41;;;;;;;;;12.75;12.50;;;;;20.43;31.63;103205.38;4995739;28;45438;-60
2022/01/14 01:54:06;;;;;;;;;15.00;13.75;;;;;20.41;31.43;103201.88;4995771;28;45777;-60
2022/01/14 01:56:31;;;;;;;;;13.25;13.00;;;;;20.39;31.81;103199.28;4995553;27;45345;-58
2022/01/14 01:58:57;;;;;;;;;13.00;12.50;;;;;20.37;31.88;103198.44;4995654;28;45537;-49
2022/01/14 02:01:24;;;;;;;;;15.50;14.50;;;;;20.37;31.71;103200.22;4995264;28;46033;-50
2022/01/14 02:03:52;;;;;;;;;13.50;13.50;;;;;20.35;31.42;103194.09;4995286;28;45325;-58
2022/01/14 02:06:20;;;;;;;;;18.50;14.50;;;;;20.34;31.68;103197.63;4995381;27;45374;-51
2022/01/14 02:08:45;;;;;;;;;13.00;12.50;;;;;20.33;31.56;103186.22;4995341;27;45457;-56
2022/01/14 02:11:11;;;;;;;;;14.75;14.75;;;;;20.32;31.76;103188.88;4995597;28;45522;-52
2022/01/14 02:13:36;;;;;;;;;13.25;12.25;;;;;20.31;31.34;103181.88;4995602;28;45419;-53
2022/01/14 02:18:59;;;;;;;;;14.50;14.25;;;;;20.28;31.83;103179.31;4995471;28;45368;-58
2022/01/14 02:26:46;;;;;;;;;13.25;13.25;;;;;20.23;31.33;103182.00;4995340;27;45493;-55
2022/01/14 02:29:12;;;;;;;;;15.25;14.50;;;;;20.21;31.58;103175.91;4995876;28;45920;-53
2022/01/14 02:31:37;;;;;;;;;13.75;13.75;;;;;20.20;31.49;103176.78;4995343;28;45486;-49
2022/01/14 02:34:02;;;;;;;;;15.25;13.50;;;;;20.18;31.76;103181.22;4995047;28;45410;-57
2022/01/14 02:36:31;;;;;;;;;20.00;16.50;;;;;20.17;31.38;103176.84;4995176;27;45808;-54
2022/01/14 02:38:57;;;;;;;;;15.50;13.00;;;;;20.15;31.93;103168.09;4977686;28;45431;-59
2022/01/14 02:41:22;;;;;;;;;16.50;14.25;;;;;20.12;31.68;103161.13;4994747;28;45446;-56
2022/01/14 02:43:48;;;;;;;;;14.75;14.75;;;;;20.11;31.80;103158.53;4977310;28;45288;-59
2022/01/14 02:46:15;;;;;;;;;15.00;13.75;;;;;20.09;31.50;103153.25;4995080;27;45268;-51
2022/01/14 02:48:40;;;;;;;;;18.50;13.75;;;;;20.07;32.20;103153.31;4994123;28;45344;-55
2022/01/14 02:51:12;;;;;;;;;16.00;16.00;;;;;20.05;31.75;103146.34;4994922;28;46609;-53
2022/01/14 02:56:11;;;;;;;;;17.25;16.00;;;;;20.06;31.88;103153.34;4994977;27;45170;-53
2022/01/14 02:58:38;;;;;;;;;14.25;13.75;;;;;20.06;31.65;103159.47;4994935;28;45356;-59
2022/01/14 03:01:11;;;;;;;;;12.67;12.67;;;;;20.08;31.87;103154.16;4994462;28;47094;-51
2022/01/14 03:03:37;;;;;;;;;13.25;12.50;;;;;20.11;32.09;103153.25;4994625;27;45833;-56
2022/01/14 03:06:04;;;;;;;;;16.25;16.00;;;;;20.12;31.90;103136.56;4994739;28;45419;-55
2022/01/14 03:08:31;;;;;;;;;15.25;15.25;;;;;20.14;32.29;103130.38;4994640;28;45527;-53
2022/01/14 03:11:06;;;;;;;;;13.75;13.75;;;;;20.19;31.78;103133.78;4977067;28;45364;-58
2022/01/14 03:13:32;;;;;;;;;12.25;10.75;;;;;20.22;31.99;103124.97;4994457;28;45780;-46
2022/01/14 03:15:58;;;;;;;;;15.25;12.50;;;;;20.24;32.07;103131.94;4994634;27;45525;-49
2022/01/14 03:18:40;;;;;;;;;14.00;12.00;;;;;20.30;31.97;103128.34;4994856;28;45388;-59
2022/01/14 03:21:10;;;;;;;;;14.50;14.00;;;;;20.34;31.49;103127.38;4994567;28;46525;-59
2022/01/14 03:23:43;;;;;;;;;14.75;12.75;;;;;20.37;31.51;103124.69;4994483;28;45319;-58
2022/01/14 03:26:09;;;;;;;;;15.00;13.25;;;;;20.40;31.58;103123.75;4994101;28;45325;-56
2022/01/14 03:28:34;;;;;;;;;15.00;13.75;;;;;20.43;31.46;103120.22;4993863;28;46256;-61
2022/01/14 03:30:59;;;;;;;;;16.00;15.25;;;;;20.45;31.60;103124.56;4976579;28;46455;-53
2022/01/14 03:33:25;;;;;;;;;13.50;11.00;;;;;20.48;32.11;103120.97;4994294;28;49575;-51
2022/01/14 03:35:50;;;;;;;;;13.25;11.75;;;;;20.51;31.67;103113.03;4994444;28;45348;-54
2022/01/14 03:38:16;;;;;;;;;12.50;11.50;;;;;20.53;31.53;103113.88;4994638;28;45255;-49
2022/01/14 03:40:43;;;;;;;;;13.50;12.50;;;;;20.54;32.00;103123.53;4994448;28;46547;-58
2022/01/14 03:43:08;;;;;;;;;15.00;12.00;;;;;20.57;31.98;103126.06;4994074;28;45217;-54
2022/01/14 03:45:33;;;;;;;;;14.75;13.25;;;;;20.58;31.66;103121.69;4994311;28;45341;-45
2022/01/14 03:47:59;;;;;;;;;13.25;12.50;;;;;20.60;31.34;103126.03;4994448;28;45523;-57
2022/01/14 03:50:25;;;;;;;;;16.25;14.25;;;;;20.61;31.60;103126.91;4994004;28;45462;-55
2022/01/14 03:52:50;;;;;;;;;15.25;12.50;;;;;20.60;31.75;103126.03;4994141;28;46014;-56
2022/01/14 03:55:16;;;;;;;;;11.75;10.25;;;;;20.63;31.44;103122.44;4994430;28;45314;-48
2022/01/14 03:57:41;;;;;;;;;5.75;5.00;;;;;20.61;31.82;103109.31;4994833;28;45640;-60
2022/01/14 04:00:07;;;;;;;;;15.25;14.50;;;;;20.62;31.48;103111.06;4993894;28;45485;-48
2022/01/14 04:02:33;;;;;;;;;12.25;11.25;;;;;20.62;31.79;103105.78;4993805;28;45899;-57
2022/01/14 04:04:58;;;;;;;;;12.75;12.75;;;;;20.63;31.32;103109.28;4994177;28;45610;-57
2022/01/14 04:07:23;;;;;;;;;17.25;14.00;;;;;20.63;31.62;103112.81;4994233;27;45604;-49
2022/01/14 04:09:49;;;;;;;;;16.50;14.50;;;;;20.64;31.57;103113.66;4993728;27;45498;-57
2022/01/14 04:12:20;;;;;;;;;15.00;13.25;;;;;20.63;31.76;103109.28;4994108;28;45311;-46
2022/01/14 04:17:11;;;;;;;;;15.50;12.25;;;;;20.62;31.25;103100.53;4994126;28;45405;-49
2022/01/14 04:19:36;;;;;;;;;17.75;12.25;;;;;20.62;31.06;103112.81;4993464;28;45934;-50
2022/01/14 04:22:03;;;;;;;;;13.50;13.50;;;;;20.62;31.20;103115.44;4993636;28;45319;-54
2022/01/14 04:24:28;;;;;;;;;14.25;12.75;;;;;20.60;31.38;103114.63;4993667;28;45371;-44
2022/01/14 04:26:54;;;;;;;;;15.25;12.00;;;;;20.59;31.25;103113.75;4993966;28;45328;-49
2022/01/14 04:29:19;;;;;;;;;13.50;12.00;;;;;20.59;31.53;103111.09;4993435;28;46476;-45
2022/01/14 04:31:44;;;;;;;;;16.00;14.00;;;;;20.58;31.33;103104.09;4993869;28;45338;-53
2022/01/14 04:34:10;;;;;;;;;17.50;15.50;;;;;20.57;31.33;103102.38;4993579;28;45279;-45
2022/01/14 04:36:36;;;;;;;;;14.50;14.00;;;;;20.55;31.55;103093.66;4993767;28;45251;-57
2022/01/14 04:39:02;;;;;;;;;14.50;12.25;;;;;20.55;31.37;103099.78;4977049;28;48050;-47
2022/01/14 04:41:27;;;;;;;;;13.50;13.50;;;;;20.54;31.26;103098.03;4978820;28;46047;-56
2022/01/14 04:43:52;;;;;;;;;13.25;13.25;;;;;20.52;31.71;103094.56;4996514;28;45217;-51
2022/01/14 04:48:52;;;;;;;;;10.75;10.50;;;;;20.50;31.93;103085.84;4996304;28;45873;-55
2022/01/14 04:51:20;;;;;;;;;12.75;12.75;;;;;20.49;31.53;103084.09;4996650;27;45280;-50
2022/01/14 04:53:45;;;;;;;;;12.50;10.25;;;;;20.48;31.51;103081.47;4996670;28;45449;-52
2022/01/14 04:56:11;;;;;;;;;13.00;12.00;;;;;20.46;31.33;103076.25;4996455;28;45549;-53
2022/01/14 04:58:36;;;;;;;;;16.00;14.00;;;;;20.46;31.51;103078.00;4996029;28;45395;-57
2022/01/14 05:01:02;;;;;;;;;13.75;13.75;;;;;20.44;31.29;103075.41;4996220;28;45264;-57
2022/01/14 05:03:27;;;;;;;;;16.00;14.75;;;;;20.43;31.78;103070.16;4995965;28;45431;-51
2022/01/14 05:05:54;;;;;;;;;13.50;12.00;;;;;20.41;31.24;103074.59;4978682;28;45527;-51
2022/01/14 05:08:24;;;;;;;;;13.75;12.75;;;;;20.39;31.81;103077.28;4994997;27;45300;-47
2022/01/14 05:11:40;;;;;;;;;15.00;13.50;;;;;20.38;31.33;103084.28;4978457;28;45597;-51
2022/01/14 05:13:35;;;;;;;;;15.00;14.25;;;;;20.37;31.76;103084.31;4992104;28;45360;-51
2022/01/14 05:16:01;;;;;;;;;15.25;15.00;;;;;20.34;31.86;103079.97;4996288;27;45429;-48
2022/01/14 05:18:26;;;;;;;;;12.50;11.75;;;;;20.34;31.33;103081.75;4995957;27;46335;-51
2022/01/14 05:20:52;;;;;;;;;14.50;14.50;;;;;20.32;31.61;103087.06;4995874;28;45401;-51
2022/01/14 05:23:18;;;;;;;;;16.50;13.50;;;;;20.30;31.36;103073.03;4996277;28;45358;-55
2022/01/14 05:25:43;;;;;;;;;14.25;12.00;;;;;20.30;31.54;103082.69;4996245;27;45248;-48
2022/01/14 05:28:09;;;;;;;;;14.00;13.25;;;;;20.27;31.79;103067.81;4995385;28;54464;-49
2022/01/14 05:30:34;;;;;;;;;15.25;12.75;;;;;20.27;31.88;103078.34;4995898;28;45467;-53
2022/01/14 05:32:59;;;;;;;;;12.25;9.75;;;;;20.26;31.63;103081.03;4996142;28;45280;-49
2022/01/14 05:35:27;;;;;;;;;14.50;13.50;;;;;20.25;31.84;103080.13;4996013;28;45684;-54
2022/01/14 05:37:53;;;;;;;;;17.25;15.25;;;;;20.20;31.73;103076.75;4978133;28;48265;-55
2022/01/14 05:40:20;;;;;;;;;18.00;15.75;;;;;20.20;31.74;103082.84;4995917;27;45253;-49
2022/01/14 05:42:46;;;;;;;;;15.00;14.75;;;;;20.18;31.80;103089.06;4995799;28;45408;-46
2022/01/14 05:45:14;;;;;;;;;14.00;12.50;;;;;20.16;31.62;103088.22;4995978;28;45878;-54
2022/01/14 05:47:40;;;;;;;;;15.25;14.00;;;;;20.15;31.64;103092.63;4995445;28;47207;-49
2022/01/14 05:50:10;;;;;;;;;15.75;14.25;;;;;20.12;31.67;103097.94;4994551;28;45387;-51
2022/01/14 05:52:36;;;;;;;;;12.75;12.75;;;;;20.12;31.77;103097.09;4995505;28;45437;-51
2022/01/14 05:55:02;;;;;;;;;15.25;13.75;;;;;20.10;31.51;103094.44;4995770;27;45272;-60
2022/01/14 05:57:27;;;;;;;;;12.75;12.25;;;;;20.10;31.42;103097.09;4995475;28;47108;-60
2022/01/14 05:59:52;;;;;;;;;16.00;14.00;;;;;20.12;31.76;103094.44;4995423;28;45315;-45
2022/01/14 06:02:18;;;;;;;;;15.25;12.75;;;;;20.13;31.76;103098.78;4995714;28;45479;-61
2022/01/14 06:04:45;;;;;;;;;14.25;12.75;;;;;20.13;31.68;103096.16;4995545;28;45554;-57
2022/01/14 06:07:11;;;;;;;;;15.75;13.50;;;;;20.17;31.82;103092.59;4995148;27;46531;-57
2022/01/14 06:09:37;;;;;;;;;12.50;12.00;;;;;20.19;31.55;103090.81;4995211;27;45347;-50
2022/01/14 06:12:03;;;;;;;;;13.25;13.25;;;;;20.22;31.86;103091.59;4977771;28;45447;-57
2022/01/14 06:14:28;;;;;;;;;13.50;13.50;;;;;20.27;31.18;103091.53;4995659;28;45385;-56
2022/01/14 06:16:54;;;;;;;;;14.25;12.50;;;;;20.30;32.01;103085.31;4995206;27;46619;-47
2022/01/14 06:19:19;;;;;;;;;17.50;14.75;;;;;20.33;31.31;103087.91;4995490;28;45189;-56
2022/01/14 06:21:44;;;;;;;;;16.50;14.00;;;;;20.35;31.49;103081.69;4995409;28;45287;-54
2022/01/14 06:24:10;;;;;;;;;14.50;13.75;;;;;20.39;31.66;103087.81;4994246;28;45355;-51
2022/01/14 06:26:35;;;;;;;;;13.25;12.75;;;;;20.43;31.84;103085.97;4995168;28;45449;-54
2022/01/14 06:29:00;;;;;;;;;16.00;15.00;;;;;20.45;31.31;103081.56;4995236;27;45323;-57
2022/01/14 06:31:26;;;;;;;;;17.00;15.00;;;;;20.47;31.54;103087.63;4995229;28;45297;-54
2022/01/14 06:33:51;;;;;;;;;15.00;13.75;;;;;20.50;31.84;103090.22;4995505;28;45557;-55
2022/01/14 06:36:16;;;;;;;;;13.25;11.75;;;;;20.52;31.42;103091.06;4994976;28;45477;-53
2022/01/14 06:38:42;;;;;;;;;13.75;12.00;;;;;20.55;31.62;103096.28;4994860;28;45319;-51
2022/01/14 06:41:08;;;;;;;;;14.25;13.00;;;;;20.58;31.56;103092.72;4977427;28;45446;-52
2022/01/14 06:43:33;;;;;;;;;14.00;12.00;;;;;20.59;31.78;103087.41;4995078;28;45567;-52
2022/01/14 06:45:59;;;;;;;;;14.75;12.75;;;;;20.61;31.45;103082.13;4994854;28;45260;-53
2022/01/14 06:48:25;;;;;;;;;11.25;11.25;;;;;20.64;31.45;103084.66;4995163;28;45394;-51
2022/01/14 06:50:50;;;;;;;;;13.00;11.75;;;;;20.64;31.09;103085.56;4995258;28;45419;-57
2022/01/14 06:53:16;;;;;;;;;16.50;13.75;;;;;20.65;31.19;103083.78;4995199;28;45353;-47
2022/01/14 06:55:41;;;;;;;;;14.25;13.50;;;;;20.65;31.14;103083.78;4994785;28;45347;-55
2022/01/14 06:58:10;;;;;;;;;14.25;14.25;;;;;20.64;31.22;103080.28;4994953;28;45443;-58
2022/01/14 07:00:35;;;;;;;;;16.00;14.75;;;;;20.66;31.61;103080.25;4995201;27;45560;-54
2022/01/14 07:03:08;;;;;;;;;14.75;14.00;;;;;20.66;30.91;103080.25;4994667;27;45585;-56
2022/01/14 07:05:34;;;;;;;;;15.00;15.00;;;;;20.64;31.50;103075.00;4994868;28;46339;-51
2022/01/14 07:08:03;;;;;;;;;14.50;14.25;;;;;20.65;30.85;103067.97;4994892;27;45336;-53
2022/01/14 07:10:28;;;;;;;;;12.50;11.50;;;;;20.65;31.24;103067.97;4994928;27;45500;-54
2022/01/14 07:12:54;;;;;;;;;15.50;14.25;;;;;20.66;31.02;103080.25;4961517;28;45614;-58
2022/01/14 07:15:21;;;;;;;;;14.00;13.50;;;;;20.67;30.71;103074.94;4976804;28;46981;-56
2022/01/14 07:17:46;;;;;;;;;16.50;14.75;;;;;20.64;30.56;103067.13;4977072;28;45448;-57
2022/01/14 07:20:14;;;;;;;;;16.50;16.50;;;;;20.63;30.86;103062.75;4994627;28;45581;-59
2022/01/14 07:22:41;;;;;;;;;14.00;13.00;;;;;20.65;30.76;103067.97;4994556;27;45236;-47
2022/01/14 07:25:08;;;;;;;;;15.00;14.75;;;;;20.64;31.23;103072.38;4994326;27;46745;-53
2022/01/14 07:27:33;;;;;;;;;14.00;14.00;;;;;20.64;30.77;103064.47;4994224;28;45365;-55
2022/01/14 07:29:59;;;;;;;;;16.75;15.00;;;;;20.62;30.63;103057.47;4994418;28;45318;-47
2022/01/14 07:32:25;;;;;;;;;13.25;13.25;;;;;20.61;30.77;103061.03;4994798;28;45359;-53
2022/01/14 07:34:50;;;;;;;;;14.50;14.50;;;;;20.60;30.79;103065.44;4994129;28;45626;-52
2022/01/14 07:37:18;;;;;;;;;16.50;14.50;;;;;20.60;30.80;103073.31;4993958;28;45251;-56
2022/01/14 07:39:43;;;;;;;;;16.25;12.25;;;;;20.59;30.87;103068.94;4994324;27;45419;-49
2022/01/14 07:42:09;;;;;;;;;13.75;13.75;;;;;20.59;31.26;103074.22;4994529;28;45317;-54
2022/01/14 07:44:34;;;;;;;;;16.00;14.25;;;;;20.57;31.15;103065.47;4993886;28;45162;-52
2022/01/14 07:47:00;;;;;;;;;17.25;14.00;;;;;20.55;30.78;103062.03;4994102;28;45421;-53
2022/01/14 07:49:25;;;;;;;;;13.50;13.50;;;;;20.55;30.69;103067.31;4994550;27;45438;-48
2022/01/14 07:51:51;;;;;;;;;9.50;6.75;;;;;20.54;31.28;103071.69;4994406;27;45574;-47
2022/01/14 07:54:16;;;;;;;;;15.50;12.50;;;;;20.52;31.45;103078.75;4993824;28;46262;-54
2022/01/14 07:56:45;;;;;;;;;16.00;13.00;;;;;20.52;30.84;103084.00;4994067;27;45354;-57
2022/01/14 07:59:17;;;;;;;;;14.50;10.75;;;;;20.50;31.31;103083.19;4976488;28;45417;-49
2022/01/14 08:01:44;;;;;;;;;12.50;11.00;;;;;20.50;31.53;103084.94;4994267;28;45512;-59
2022/01/14 08:04:10;;;;;;;;;12.25;12.25;;;;;20.48;31.30;103084.09;4993692;28;46211;-57
2022/01/14 08:06:44;;;;;;;;;10.75;10.75;;;;;20.46;31.28;103078.00;4994006;28;45371;-54
2022/01/14 08:09:09;;;;;;;;;16.50;15.50;;;;;20.46;31.19;103080.63;4993872;27;45373;-59
2022/01/14 08:11:34;;;;;;;;;13.75;12.50;;;;;20.44;30.98;103085.09;4994113;28;45303;-58
2022/01/14 08:14:00;;;;;;;;;14.00;14.00;;;;;20.43;31.38;103083.34;4992884;28;46658;-56
2022/01/14 08:16:26;;;;;;;;;13.50;13.50;;;;;20.41;31.35;103091.25;4994188;28;45186;-52
2022/01/14 08:18:51;;;;;;;;;14.00;12.00;;;;;20.40;31.47;103089.50;4994188;28;45194;-60
2022/01/14 08:21:17;;;;;;;;;10.00;8.50;;;;;20.38;31.34;103089.56;4994251;27;45236;-54
2022/01/14 08:23:43;;;;;;;;;15.50;13.25;;;;;20.37;31.18;103090.44;4993587;28;46352;-57
2022/01/14 08:26:08;;;;;;;;;10.50;10.50;;;;;20.36;31.65;103090.50;4993562;28;45883;-55
2022/01/14 08:28:34;;;;;;;;;12.25;12.00;;;;;20.35;31.03;103097.50;4993677;28;45216;-49
2022/01/14 08:30:59;;;;;;;;;14.50;13.50;;;;;20.33;31.56;103095.81;4994183;28;45699;-51
2022/01/14 08:33:25;;;;;;;;;14.50;14.50;;;;;20.33;31.42;103096.69;4993622;28;46256;-57
2022/01/14 08:35:50;;;;;;;;;0.50;0.50;;;;;20.33;31.75;103096.69;4993378;28;45410;-57
2022/01/14 08:38:16;;;;;;;;;16.75;12.75;;;;;20.30;31.03;103096.75;4993496;28;45401;-59
2022/01/14 08:40:42;;;;;;;;;12.25;9.75;;;;;20.28;31.52;103095.88;4993583;28;45379;-53
2022/01/14 08:43:08;;;;;;;;;13.50;11.75;;;;;20.29;31.21;103099.38;4993075;28;45494;-59
2022/01/14 08:45:34;;;;;;;;;13.75;13.25;;;;;20.28;31.30;103103.78;4993220;28;45414;-55
2022/01/14 08:47:59;;;;;;;;;17.00;14.00;;;;;20.26;31.03;103096.81;4993733;28;45487;-55
2022/01/14 08:50:30;;;;;;;;;15.00;12.00;;;;;20.25;30.86;103093.31;4993527;28;45549;-55
2022/01/14 08:52:58;;;;;;;;;12.75;12.75;;;;;20.22;31.12;103096.88;4959629;28;48511;-59
2022/01/14 08:55:23;;;;;;;;;13.25;12.25;;;;;20.19;31.56;103096.91;4993248;28;45429;-56
2022/01/14 08:57:50;;;;;;;;;17.00;13.25;;;;;20.19;31.52;103098.69;4993285;28;45377;-57
2022/01/14 09:00:17;;;;;;;;;15.75;15.00;;;;;20.18;30.93;103099.59;4993364;28;45302;-57
2022/01/14 09:02:42;;;;;;;;;13.00;10.75;;;;;20.17;31.38;103100.47;4992793;28;45303;-56
2022/01/14 09:05:09;;;;;;;;;16.75;14.50;;;;;20.15;31.57;103094.38;4975424;28;45316;-56
2022/01/14 09:07:35;;;;;;;;;12.75;11.75;;;;;20.14;31.30;103087.38;4993054;27;45345;-49
2022/01/14 09:10:01;;;;;;;;;13.50;12.75;;;;;20.12;31.16;103086.56;4993246;28;45571;-48
2022/01/14 09:12:26;;;;;;;;;17.50;14.25;;;;;20.13;31.16;103088.25;4992860;28;45419;-57
2022/01/14 09:14:52;;;;;;;;;13.50;13.25;;;;;20.11;31.16;103092.72;4992819;27;45410;-53
2022/01/14 09:17:17;;;;;;;;;14.50;13.00;;;;;20.10;31.19;103088.34;4992958;28;45421;-45
2022/01/14 09:19:44;;;;;;;;;13.25;11.75;;;;;20.10;31.64;103089.19;4993063;28;45451;-47
2022/01/14 09:22:10;;;;;;;;;14.25;12.50;;;;;20.12;31.75;103083.91;4992467;27;46445;-54
2022/01/14 09:24:36;;;;;;;;;8.25;8.00;;;;;20.11;31.31;103079.53;4993615;28;45745;-45
2022/01/14 09:27:02;;;;;;;;;16.25;13.75;;;;;20.14;31.52;103082.09;4996298;27;45350;-46
2022/01/14 09:29:28;;;;;;;;;13.75;11.75;;;;;20.17;31.21;103082.06;4996440;28;45584;-47
2022/01/14 09:31:54;;;;;;;;;14.50;12.50;;;;;20.20;31.63;103080.22;4995724;28;46261;-47
2022/01/14 09:34:19;;;;;;;;;11.75;10.75;;;;;20.23;31.04;103084.56;4995737;27;45309;-45
2022/01/14 09:36:45;;;;;;;;;16.25;12.75;;;;;20.28;31.55;103082.72;4995879;28;45366;-50
2022/01/14 09:39:11;;;;;;;;;14.75;12.75;;;;;20.32;31.22;103075.63;4995837;28;45343;-56
2022/01/14 09:41:37;;;;;;;;;15.00;13.25;;;;;20.36;31.10;103082.59;4995520;28;45682;-52
2022/01/14 09:44:03;;;;;;;;;11.25;8.00;;;;;20.41;30.89;103085.13;4996073;27;45891;-50
2022/01/14 09:46:29;;;;;;;;;14.25;12.50;;;;;20.41;30.98;103074.59;4995905;28;45322;-54
2022/01/14 09:48:54;;;;;;;;;13.25;13.25;;;;;20.45;30.99;103076.28;4995918;28;45556;-54
2022/01/14 09:51:20;;;;;;;;;14.50;11.00;;;;;20.48;31.19;103084.09;4995366;28;46402;-55
2022/01/14 09:53:46;;;;;;;;;13.50;11.25;;;;;20.50;30.67;103079.69;4995426;28;45187;-54
2022/01/14 09:56:16;;;;;;;;;15.50;12.75;;;;;20.52;30.74;103085.78;4995581;27;45493;-61
2022/01/14 09:58:47;;;;;;;;;16.00;15.75;;;;;20.54;30.95;103092.75;4995624;27;45427;-59
2022/01/14 10:01:16;;;;;;;;;15.00;12.75;;;;;20.58;30.97;103090.06;4995545;28;45830;-55
2022/01/14 10:04:02;;;;;;;;;12.00;12.00;;;;;20.60;31.01;103097.03;4995285;27;45293;-57
2022/01/14 10:06:55;;;;;;;;;14.75;13.25;;;;;20.62;30.87;103100.53;4995462;28;45351;-58
2022/01/14 10:09:29;;;;;;;;;15.25;14.25;;;;;20.62;30.92;103095.25;4987879;28;45375;-52
2022/01/14 10:12:20;;;;;;;;;12.00;12.00;;;;;20.63;30.54;103104.91;4995350;28;46662;-55
2022/01/14 10:15:08;;;;;;;;;13.75;12.00;;;;;20.63;30.50;103102.25;4977590;28;45980;-52
2022/01/14 10:17:40;;;;;;;;;10.50;10.50;;;;;20.65;30.86;103111.00;4995654;28;45326;-56
2022/01/14 10:20:09;;;;;;;;;11.50;11.50;;;;;20.65;30.38;103100.47;4995567;28;45357;-55
2022/01/14 10:22:40;;;;;;;;;15.00;14.00;;;;;20.67;30.29;103098.66;4995319;28;46200;-54
2022/01/14 10:25:05;;;;;;;;;15.50;13.75;;;;;20.68;30.35;103100.38;4977569;28;45349;-50
2022/01/14 10:27:40;;;;;;;;;14.33;13.33;;;;;20.67;30.57;103096.00;4977927;28;45276;-56
2022/01/14 10:30:14;;;;;;;;;13.75;13.75;;;;;20.68;30.30;103103.03;4995725;28;45433;-52
2022/01/14 10:32:42;;;;;;;;;11.25;9.25;;;;;20.69;30.31;103093.38;4995056;28;46947;-59
2022/01/14 10:35:15;;;;;;;;;19.50;15.75;;;;;20.69;30.76;103096.00;4994959;28;45225;-48
2022/01/14 10:37:41;;;;;;;;;16.50;14.25;;;;;20.68;30.43;103100.38;4994447;28;45358;-57
2022/01/14 10:40:20;;;;;;;;;18.75;16.75;;;;;20.68;30.68;103089.00;4995240;28;45379;-50
2022/01/14 10:42:49;;;;;;;;;16.25;15.00;;;;;20.68;30.22;103094.25;4994978;28;46665;-49
2022/01/14 10:45:22;;;;;;;;;13.00;12.50;;;;;20.66;30.19;103091.66;4994947;28;45354;-53
2022/01/14 10:48:00;;;;;;;;;13.25;13.25;;;;;20.67;30.42;103092.53;4994989;28;45303;-59
2022/01/14 10:50:31;;;;;;;;;13.50;13.50;;;;;20.67;30.23;103082.84;4995226;28;45430;-58
2022/01/14 10:52:57;;;;;;;;;18.25;14.75;;;;;20.67;30.72;103081.97;4994815;28;46178;-53
2022/01/14 10:55:38;;;;;;;;;14.75;13.50;;;;;20.66;30.17;103074.97;4994726;28;45868;-54
2022/01/14 10:58:10;;;;;;;;;16.50;14.25;;;;;20.66;30.20;103067.06;4995323;28;45482;-57
2022/01/14 11:00:43;;;;;;;;;15.25;13.50;;;;;20.63;30.91;103064.50;4995370;28;45422;-59
2022/01/14 11:03:09;;;;;;;;;16.00;15.75;;;;;20.64;30.70;103063.59;4994602;28;46661;-58
2022/01/14 11:05:35;;;;;;;;;16.50;15.00;;;;;20.63;30.72;103062.75;4995039;28;45387;-58
2022/01/14 11:08:02;;;;;;;;;17.25;15.00;;;;;20.62;30.57;103062.75;4994985;27;45423;-55
2022/01/14 11:10:33;;;;;;;;;17.00;14.50;;;;;20.60;30.59;103062.78;4993583;27;45571;-56
2022/01/14 11:13:01;;;;;;;;;16.75;16.00;;;;;20.60;30.68;103054.88;4994411;28;45479;-56
2022/01/14 11:15:29;;;;;;;;;17.25;15.50;;;;;20.59;30.31;103061.06;4994510;27;45403;-48
2022/01/14 11:17:56;;;;;;;;;16.00;13.50;;;;;20.54;30.40;103053.25;4994635;28;45410;-49
2022/01/14 11:20:29;;;;;;;;;15.00;13.25;;;;;20.59;30.89;103057.56;4993656;27;45444;-53
2022/01/14 11:25:44;;;;;;;;;15.50;15.00;;;;;20.54;30.56;103053.25;4994422;28;45348;-49
2022/01/14 11:28:11;;;;;;;;;16.00;13.75;;;;;20.53;30.81;103048.88;4994550;28;45354;-49
2022/01/14 11:30:39;;;;;;;;;6.75;6.75;;;;;20.52;30.99;103046.28;4995043;28;45251;-48
2022/01/14 11:33:06;;;;;;;;;15.50;14.50;;;;;20.51;30.38;103039.28;4994506;27;45589;-51
2022/01/14 11:35:34;;;;;;;;;16.50;16.50;;;;;20.51;30.32;103036.63;4994225;28;45332;-47
2022/01/14 11:38:01;;;;;;;;;13.25;11.75;;;;;20.49;31.07;103035.78;4994333;28;45445;-51
2022/01/14 11:40:27;;;;;;;;;15.75;14.75;;;;;20.48;30.88;103023.53;4994565;27;45280;-60